createdAt,value
2019-03-21T00:05:08.737Z,8.47
2019-03-21T00:10:37.062Z,8.54
2019-03-21T00:15:45.128Z,8.50
2019-03-21T00:20:52.713Z,8.55
2019-03-21T00:26:00.261Z,8.37
2019-03-21T00:31:07.827Z,8.34
2019-03-21T00:36:15.638Z,8.29
2019-03-21T00:41:23.546Z,8.28
2019-03-21T00:46:32.815Z,8.37
2019-03-21T00:51:41.502Z,8.52
2019-03-21T00:56:49.227Z,8.35
2019-03-21T01:01:56.702Z,8.35
2019-03-21T01:07:04.890Z,8.19
2019-03-21T01:12:13.022Z,8.19
2019-03-21T01:17:20.639Z,8.32
2019-03-21T01:22:28.431Z,8.14
2019-03-21T01:27:36.068Z,8.16
2019-03-21T01:32:43.653Z,8.18
2019-03-21T01:37:51.802Z,8.03
2019-03-21T01:42:59.437Z,7.97
2019-03-21T01:48:06.987Z,8.01
2019-03-21T01:53:14.992Z,7.93
2019-03-21T01:58:22.589Z,7.90
2019-03-21T02:03:30.133Z,7.87
2019-03-21T02:08:37.623Z,7.98
2019-03-21T02:13:45.233Z,7.88
2019-03-21T02:18:53.772Z,7.81
2019-03-21T02:24:01.372Z,7.62
2019-03-21T02:29:08.873Z,7.41
2019-03-21T02:34:16.429Z,7.45
2019-03-21T02:39:24.471Z,7.29
2019-03-21T02:44:32.120Z,7.17
2019-03-21T02:49:39.728Z,7.04
2019-03-21T02:54:47.364Z,6.81
2019-03-21T02:59:55.030Z,6.61
2019-03-21T03:05:02.671Z,6.67
2019-03-21T03:10:12.513Z,6.63
2019-03-21T03:15:23.060Z,6.49
2019-03-21T03:20:30.085Z,6.54
2019-03-21T03:25:37.746Z,6.43
2019-03-21T03:30:45.293Z,6.40
2019-03-21T03:35:52.797Z,6.30
2019-03-21T03:41:01.363Z,6.34
2019-03-21T03:46:08.993Z,6.18
2019-03-21T03:51:16.829Z,6.16
2019-03-21T03:56:24.609Z,6.03
2019-03-21T04:01:32.415Z,6.05
2019-03-21T04:06:40.541Z,5.85
2019-03-21T04:11:48.471Z,5.91
2019-03-21T04:16:56.105Z,5.83
2019-03-21T04:22:03.687Z,5.75
2019-03-21T04:27:11.252Z,5.76
2019-03-21T04:32:19.690Z,5.68
2019-03-21T04:37:27.306Z,5.66
2019-03-21T04:42:34.881Z,5.57
2019-03-21T04:47:42.424Z,5.52
2019-03-21T04:52:50.352Z,5.43
2019-03-21T04:57:58.610Z,5.52
2019-03-21T05:03:06.800Z,5.58
2019-03-21T05:08:14.429Z,5.28
2019-03-21T05:13:22.002Z,5.14
2019-03-21T05:18:33.695Z,5.35
2019-03-21T05:23:41.261Z,5.24
2019-03-21T05:28:48.850Z,5.08
2019-03-21T05:33:56.329Z,5.10
2019-03-21T05:39:05.632Z,5.12
2019-03-21T05:44:21.261Z,5.06
2019-03-21T05:49:28.996Z,5.17
2019-03-21T05:54:36.593Z,5.20
2019-03-21T05:59:44.193Z,5.24
2019-03-21T06:04:51.750Z,5.24
2019-03-21T06:09:59.330Z,5.56
2019-03-21T06:15:07.431Z,5.78
2019-03-21T06:20:32.359Z,5.69
2019-03-21T06:26:04.683Z,6.03
2019-03-21T06:31:12.235Z,7.29
2019-03-21T06:36:19.734Z,7.65
2019-03-21T06:41:27.237Z,7.15
2019-03-21T06:46:34.790Z,6.51
2019-03-21T06:51:42.374Z,6.40
2019-03-21T06:56:49.919Z,6.44
2019-03-21T07:01:57.415Z,6.72
2019-03-21T07:07:08.495Z,6.72
2019-03-21T07:12:14.340Z,6.72
2019-03-21T07:17:23.522Z,7.09
2019-03-21T07:22:31.018Z,7.22
2019-03-21T07:27:38.584Z,7.34
2019-03-21T07:32:46.134Z,7.36
2019-03-21T07:37:53.676Z,7.61
2019-03-21T07:43:01.155Z,7.82
2019-03-21T07:48:08.722Z,7.71
2019-03-21T07:53:16.275Z,8.33
2019-03-21T07:58:23.859Z,8.37
2019-03-21T08:03:31.424Z,8.59
2019-03-21T08:08:38.970Z,8.81
2019-03-21T08:13:46.619Z,9.10
2019-03-21T08:18:54.689Z,9.47
2019-03-21T08:24:02.233Z,9.70
2019-03-21T08:29:09.782Z,9.95
2019-03-21T08:34:17.537Z,10.31
2019-03-21T08:39:25.076Z,10.82
2019-03-21T08:44:32.643Z,10.90
2019-03-21T08:49:40.275Z,11.09
2019-03-21T08:54:48.027Z,11.49
2019-03-21T08:59:55.595Z,11.53
2019-03-21T09:05:03.254Z,11.80
2019-03-21T09:10:11.276Z,11.99
2019-03-21T09:15:19.073Z,12.24
2019-03-21T09:20:26.642Z,12.44
2019-03-21T09:25:34.139Z,12.51
2019-03-21T09:30:41.649Z,12.75
2019-03-21T09:35:49.191Z,12.73
2019-03-21T09:40:57.791Z,12.93
2019-03-21T09:46:05.580Z,12.90
2019-03-21T09:51:13.634Z,13.32
2019-03-21T09:56:23.880Z,13.63
2019-03-21T10:01:30.548Z,13.72
2019-03-21T10:06:38.095Z,13.76
2019-03-21T10:11:45.677Z,13.65
2019-03-21T10:16:53.296Z,13.74
2019-03-21T10:22:00.789Z,13.92
2019-03-21T10:27:08.447Z,14.03
2019-03-21T10:32:16.104Z,14.56
2019-03-21T10:37:23.763Z,14.57
2019-03-21T10:42:31.407Z,14.49
2019-03-21T10:47:39.254Z,14.66
2019-03-21T10:52:46.834Z,14.99
2019-03-21T10:57:54.327Z,14.70
2019-03-21T11:03:01.923Z,14.79
2019-03-21T11:08:09.593Z,14.96
2019-03-21T11:13:17.111Z,15.20
2019-03-21T11:18:35.534Z,15.37
2019-03-21T11:23:34.027Z,15.30
2019-03-21T11:28:41.469Z,15.51
2019-03-21T11:33:49.031Z,15.97
2019-03-21T11:38:56.707Z,16.40
2019-03-21T11:44:04.282Z,15.95
2019-03-21T11:49:11.815Z,16.53
2019-03-21T11:54:19.427Z,16.50
2019-03-21T11:59:38.389Z,16.30
2019-03-21T12:04:36.250Z,17.01
2019-03-21T12:09:43.768Z,16.53
2019-03-21T12:14:51.259Z,16.89
2019-03-21T12:19:58.891Z,17.13
2019-03-21T12:25:07.995Z,17.35
2019-03-21T12:30:18.989Z,16.78
2019-03-21T12:35:26.563Z,16.92
2019-03-21T12:40:34.151Z,18.04
2019-03-21T12:45:41.708Z,18.17
2019-03-21T12:50:49.303Z,18.78
2019-03-21T12:55:57.046Z,18.95
2019-03-21T13:01:04.852Z,17.41
2019-03-21T13:06:12.477Z,18.07
2019-03-21T13:11:20.075Z,18.64
2019-03-21T13:16:27.737Z,18.13
2019-03-21T13:21:35.314Z,18.40
2019-03-21T13:26:42.979Z,18.58
2019-03-21T13:31:50.625Z,18.55
2019-03-21T13:36:58.109Z,19.01
2019-03-21T13:42:05.874Z,19.65
2019-03-21T13:47:13.510Z,20.19
2019-03-21T13:52:21.089Z,20.25
2019-03-21T13:57:28.610Z,21.26
2019-03-21T14:02:36.266Z,19.57
2019-03-21T14:07:43.831Z,19.50
2019-03-21T14:12:51.399Z,21.36
2019-03-21T14:17:59.134Z,22.13
2019-03-21T14:23:16.523Z,22.81
2019-03-21T14:28:16.062Z,22.53
2019-03-21T14:33:23.596Z,22.89
2019-03-21T14:38:32.243Z,24.95
2019-03-21T14:43:39.827Z,24.74
2019-03-21T14:48:47.539Z,25.54
2019-03-21T14:53:55.398Z,26.29
2019-03-21T14:59:03.217Z,26.19
2019-03-21T15:04:11.090Z,25.81
2019-03-21T15:09:18.940Z,27.59
2019-03-21T15:14:26.751Z,27.59
2019-03-21T15:19:34.552Z,26.33
2019-03-21T15:24:42.426Z,26.33
2019-03-21T15:29:50.311Z,25.83
2019-03-21T15:34:59.241Z,25.83
2019-03-21T15:40:09.700Z,27.09
2019-03-21T15:45:22.626Z,27.42
2019-03-21T15:50:32.303Z,26.51
2019-03-21T15:55:40.210Z,27.21
2019-03-21T16:00:48.134Z,27.47
2019-03-21T16:05:56.006Z,27.88
2019-03-21T16:11:03.903Z,25.19
2019-03-21T16:16:11.747Z,25.19
2019-03-21T16:21:19.544Z,25.24
2019-03-21T16:26:27.419Z,25.24
2019-03-21T16:31:35.386Z,26.29
2019-03-21T16:36:43.212Z,26.78
2019-03-21T16:41:51.050Z,25.14
2019-03-21T16:46:58.823Z,25.14
2019-03-21T16:52:06.682Z,24.97
2019-03-21T16:57:14.660Z,23.77
2019-03-21T17:02:22.754Z,23.51
2019-03-21T17:07:30.526Z,22.60
2019-03-21T17:12:40.658Z,19.20
2019-03-21T17:17:48.942Z,18.24
2019-03-21T17:22:56.854Z,18.24
2019-03-21T17:28:04.663Z,17.66
2019-03-21T17:33:12.207Z,16.87
2019-03-21T17:38:19.772Z,16.22
2019-03-21T17:43:27.435Z,15.99
2019-03-21T17:48:34.990Z,15.56
2019-03-21T17:53:42.828Z,15.14
2019-03-21T17:58:50.434Z,14.77
2019-03-21T18:03:58.103Z,14.39
2019-03-21T18:09:08.022Z,14.21
2019-03-21T18:14:15.619Z,14.27
2019-03-21T18:19:23.203Z,14.35
2019-03-21T18:24:30.776Z,14.28
2019-03-21T18:29:38.362Z,14.07
2019-03-21T18:34:46.044Z,13.97
2019-03-21T18:39:53.620Z,13.90
2019-03-21T18:45:01.635Z,13.70
2019-03-21T18:50:10.994Z,13.62
2019-03-21T18:55:18.896Z,13.60
2019-03-21T19:00:26.449Z,13.50
2019-03-21T19:05:34.035Z,12.90
2019-03-21T19:10:41.734Z,12.90
2019-03-21T19:15:49.287Z,12.86
2019-03-21T19:20:56.944Z,12.80
2019-03-21T19:26:04.642Z,12.63
2019-03-21T19:31:12.223Z,12.50
2019-03-21T19:36:19.811Z,12.58
2019-03-21T19:41:27.380Z,12.57
2019-03-21T19:46:35.955Z,12.41
2019-03-21T19:51:43.795Z,12.12
2019-03-21T19:56:51.629Z,12.10
2019-03-21T20:01:59.183Z,11.89
2019-03-21T20:07:06.763Z,11.86
2019-03-21T20:12:14.336Z,11.82
2019-03-21T20:17:22.893Z,11.68
2019-03-21T20:22:30.491Z,11.53
2019-03-21T20:27:38.068Z,11.36
2019-03-21T20:32:46.604Z,11.30
2019-03-21T20:37:54.307Z,11.30
2019-03-21T20:43:01.880Z,11.42
2019-03-21T20:48:09.447Z,11.42
2019-03-21T20:53:19.696Z,11.38
2019-03-21T20:58:26.578Z,11.37
2019-03-21T21:03:34.139Z,11.28
2019-03-21T21:08:41.728Z,11.01
2019-03-21T21:13:49.338Z,10.88
2019-03-21T21:18:56.843Z,10.78
2019-03-21T21:24:04.808Z,10.56
2019-03-21T21:29:12.560Z,10.55
2019-03-21T21:34:20.054Z,10.53
2019-03-21T21:39:27.698Z,10.74
2019-03-21T21:44:35.276Z,10.70
2019-03-21T21:49:42.848Z,10.77
2019-03-21T21:54:50.496Z,11.09
2019-03-21T21:59:59.134Z,11.00
2019-03-21T22:05:07.030Z,10.89
2019-03-21T22:10:15.102Z,10.97
2019-03-21T22:15:22.671Z,11.05
2019-03-21T22:20:30.235Z,10.99
2019-03-21T22:25:37.820Z,10.66
2019-03-21T22:30:45.435Z,10.58
2019-03-21T22:35:53.063Z,10.43
2019-03-21T22:41:00.885Z,10.55
2019-03-21T22:46:08.447Z,10.50
2019-03-21T22:51:16.009Z,10.28
2019-03-21T22:56:24.026Z,10.16
2019-03-21T23:01:31.690Z,9.51
2019-03-21T23:06:39.272Z,8.53
2019-03-21T23:11:46.799Z,8.80
2019-03-21T23:16:54.406Z,8.32
2019-03-21T23:22:09.997Z,8.22
2019-03-21T23:27:12.488Z,7.98
2019-03-21T23:32:14.999Z,7.87
2019-03-21T23:37:17.424Z,8.19
2019-03-21T23:42:20.035Z,8.30
2019-03-21T23:47:22.495Z,8.39
2019-03-21T23:52:25.919Z,8.50
2019-03-21T23:57:28.484Z,8.35
